sensor_id;sensor_type;location;lat;lon;timestamp;P1;durP1;ratioP1;P2;durP2;ratioP2
58294;SDS011;45705;55.592;37.460;2022-07-29T00:01:47;2.95;;;1.80;;
58294;SDS011;45705;55.592;37.460;2022-07-29T00:04:13;4.22;;;1.73;;
58294;SDS011;45705;55.592;37.460;2022-07-29T00:06:39;4.35;;;2.10;;
58294;SDS011;45705;55.592;37.460;2022-07-29T00:09:04;6.20;;;1.90;;
58294;SDS011;45705;55.592;37.460;2022-07-29T00:11:30;4.75;;;1.80;;
58294;SDS011;45705;55.592;37.460;2022-07-29T00:13:56;2.53;;;1.85;;
58294;SDS011;45705;55.592;37.460;2022-07-29T00:16:22;2.75;;;2.00;;
58294;SDS011;45705;55.592;37.460;2022-07-29T00:18:48;6.28;;;1.98;;
58294;SDS011;45705;55.592;37.460;2022-07-29T00:21:14;6.53;;;1.98;;
58294;SDS011;45705;55.592;37.460;2022-07-29T00:23:40;8.15;;;2.00;;
58294;SDS011;45705;55.592;37.460;2022-07-29T00:26:06;5.70;;;1.80;;
58294;SDS011;45705;55.592;37.460;2022-07-29T00:28:31;3.70;;;2.25;;
58294;SDS011;45705;55.592;37.460;2022-07-29T00:33:38;3.15;;;2.00;;
58294;SDS011;45705;55.592;37.460;2022-07-29T00:36:04;4.82;;;1.88;;
58294;SDS011;45705;55.592;37.460;2022-07-29T00:38:30;5.72;;;1.88;;
58294;SDS011;45705;55.592;37.460;2022-07-29T00:40:55;5.93;;;2.00;;
58294;SDS011;45705;55.592;37.460;2022-07-29T00:43:21;4.93;;;2.00;;
58294;SDS011;45705;55.592;37.460;2022-07-29T00:45:47;6.05;;;2.00;;
58294;SDS011;45705;55.592;37.460;2022-07-29T00:48:13;3.83;;;1.85;;
58294;SDS011;45705;55.592;37.460;2022-07-29T00:50:38;3.15;;;1.90;;
58294;SDS011;45705;55.592;37.460;2022-07-29T00:53:07;5.25;;;1.83;;
58294;SDS011;45705;55.592;37.460;2022-07-29T00:55:34;3.70;;;1.95;;
58294;SDS011;45705;55.592;37.460;2022-07-29T00:58:00;3.45;;;2.22;;
58294;SDS011;45705;55.592;37.460;2022-07-29T01:00:27;5.30;;;1.90;;
58294;SDS011;45705;55.592;37.460;2022-07-29T01:02:54;4.53;;;2.00;;
58294;SDS011;45705;55.592;37.460;2022-07-29T01:05:20;5.93;;;1.90;;
58294;SDS011;45705;55.592;37.460;2022-07-29T01:07:49;3.03;;;1.83;;
58294;SDS011;45705;55.592;37.460;2022-07-29T01:10:18;6.97;;;2.05;;
58294;SDS011;45705;55.592;37.460;2022-07-29T01:12:46;6.93;;;2.13;;
58294;SDS011;45705;55.592;37.460;2022-07-29T01:15:14;2.58;;;2.00;;
58294;SDS011;45705;55.592;37.460;2022-07-29T01:20:20;4.55;;;2.40;;
58294;SDS011;45705;55.592;37.460;2022-07-29T01:28:30;5.55;;;2.00;;
58294;SDS011;45705;55.592;37.460;2022-07-29T01:31:09;3.10;;;2.25;;
58294;SDS011;45705;55.592;37.460;2022-07-29T01:33:39;4.47;;;2.22;;
58294;SDS011;45705;55.592;37.460;2022-07-29T01:36:16;3.97;;;2.45;;
58294;SDS011;45705;55.592;37.460;2022-07-29T01:38:50;6.78;;;2.38;;
58294;SDS011;45705;55.592;37.460;2022-07-29T01:41:28;6.45;;;2.40;;
58294;SDS011;45705;55.592;37.460;2022-07-29T01:44:01;4.97;;;2.67;;
58294;SDS011;45705;55.592;37.460;2022-07-29T01:46:35;9.68;;;2.80;;
58294;SDS011;45705;55.592;37.460;2022-07-29T01:49:28;4.40;;;2.50;;
58294;SDS011;45705;55.592;37.460;2022-07-29T01:52:08;7.60;;;2.65;;
58294;SDS011;45705;55.592;37.460;2022-07-29T01:54:39;9.98;;;2.60;;
58294;SDS011;45705;55.592;37.460;2022-07-29T01:57:08;5.00;;;2.35;;
58294;SDS011;45705;55.592;37.460;2022-07-29T01:59:36;7.90;;;2.53;;
58294;SDS011;45705;55.592;37.460;2022-07-29T02:02:03;3.67;;;2.10;;
58294;SDS011;45705;55.592;37.460;2022-07-29T02:04:33;7.72;;;2.60;;
58294;SDS011;45705;55.592;37.460;2022-07-29T02:07:03;4.50;;;2.33;;
58294;SDS011;45705;55.592;37.460;2022-07-29T02:09:31;5.38;;;2.45;;
58294;SDS011;45705;55.592;37.460;2022-07-29T02:12:00;5.72;;;3.17;;
58294;SDS011;45705;55.592;37.460;2022-07-29T02:14:31;3.58;;;2.10;;
58294;SDS011;45705;55.592;37.460;2022-07-29T02:17:01;11.07;;;2.88;;
58294;SDS011;45705;55.592;37.460;2022-07-29T02:19:28;3.38;;;2.22;;
58294;SDS011;45705;55.592;37.460;2022-07-29T02:21:56;5.43;;;2.58;;
58294;SDS011;45705;55.592;37.460;2022-07-29T02:24:24;3.67;;;2.70;;
58294;SDS011;45705;55.592;37.460;2022-07-29T02:26:51;6.95;;;2.58;;
58294;SDS011;45705;55.592;37.460;2022-07-29T02:29:19;6.82;;;2.70;;
58294;SDS011;45705;55.592;37.460;2022-07-29T02:31:48;6.88;;;2.80;;
58294;SDS011;45705;55.592;37.460;2022-07-29T02:34:15;8.68;;;2.75;;
58294;SDS011;45705;55.592;37.460;2022-07-29T02:36:44;5.88;;;2.90;;
58294;SDS011;45705;55.592;37.460;2022-07-29T02:39:11;4.45;;;2.70;;
58294;SDS011;45705;55.592;37.460;2022-07-29T02:41:44;5.93;;;2.80;;
58294;SDS011;45705;55.592;37.460;2022-07-29T02:44:14;7.05;;;2.67;;
58294;SDS011;45705;55.592;37.460;2022-07-29T02:46:43;7.13;;;2.90;;
58294;SDS011;45705;55.592;37.460;2022-07-29T02:49:15;4.80;;;2.50;;
58294;SDS011;45705;55.592;37.460;2022-07-29T02:51:58;6.55;;;3.00;;
58294;SDS011;45705;55.592;37.460;2022-07-29T02:54:51;7.05;;;2.60;;
58294;SDS011;45705;55.592;37.460;2022-07-29T02:57:44;7.03;;;2.70;;
58294;SDS011;45705;55.592;37.460;2022-07-29T03:00:14;6.47;;;2.50;;
58294;SDS011;45705;55.592;37.460;2022-07-29T03:02:43;8.88;;;2.50;;
58294;SDS011;45705;55.592;37.460;2022-07-29T03:05:15;4.07;;;2.00;;
58294;SDS011;45705;55.592;37.460;2022-07-29T03:07:45;7.63;;;2.08;;
58294;SDS011;45705;55.592;37.460;2022-07-29T03:10:14;4.30;;;2.10;;
58294;SDS011;45705;55.592;37.460;2022-07-29T03:12:40;7.78;;;2.42;;
58294;SDS011;45705;55.592;37.460;2022-07-29T03:15:07;4.72;;;2.20;;
58294;SDS011;45705;55.592;37.460;2022-07-29T03:17:34;8.52;;;1.90;;
58294;SDS011;45705;55.592;37.460;2022-07-29T03:20:00;6.78;;;2.35;;
58294;SDS011;45705;55.592;37.460;2022-07-29T03:22:29;3.53;;;1.83;;
58294;SDS011;45705;55.592;37.460;2022-07-29T03:24:55;4.63;;;1.80;;
58294;SDS011;45705;55.592;37.460;2022-07-29T03:27:20;4.65;;;2.03;;
58294;SDS011;45705;55.592;37.460;2022-07-29T03:29:46;6.25;;;2.00;;
58294;SDS011;45705;55.592;37.460;2022-07-29T03:32:12;4.40;;;1.98;;
58294;SDS011;45705;55.592;37.460;2022-07-29T03:34:38;2.67;;;1.92;;
58294;SDS011;45705;55.592;37.460;2022-07-29T03:37:04;5.43;;;2.10;;
58294;SDS011;45705;55.592;37.460;2022-07-29T03:39:32;2.60;;;1.63;;
58294;SDS011;45705;55.592;37.460;2022-07-29T03:42:02;3.25;;;1.55;;
58294;SDS011;45705;55.592;37.460;2022-07-29T03:44:31;7.72;;;1.60;;
58294;SDS011;45705;55.592;37.460;2022-07-29T03:46:58;7.65;;;1.63;;
58294;SDS011;45705;55.592;37.460;2022-07-29T03:49:27;4.32;;;1.55;;
58294;SDS011;45705;55.592;37.460;2022-07-29T03:51:53;2.75;;;1.50;;
58294;SDS011;45705;55.592;37.460;2022-07-29T03:54:19;2.20;;;1.50;;
58294;SDS011;45705;55.592;37.460;2022-07-29T03:56:45;2.90;;;1.65;;
58294;SDS011;45705;55.592;37.460;2022-07-29T03:59:14;4.28;;;1.88;;
58294;SDS011;45705;55.592;37.460;2022-07-29T04:01:43;4.85;;;1.33;;
58294;SDS011;45705;55.592;37.460;2022-07-29T04:04:09;3.15;;;1.50;;
58294;SDS011;45705;55.592;37.460;2022-07-29T04:06:42;3.00;;;1.27;;
58294;SDS011;45705;55.592;37.460;2022-07-29T04:09:09;5.68;;;1.20;;
58294;SDS011;45705;55.592;37.460;2022-07-29T04:11:36;4.72;;;1.55;;
58294;SDS011;45705;55.592;37.460;2022-07-29T04:14:04;3.30;;;1.50;;
58294;SDS011;45705;55.592;37.460;2022-07-29T04:16:30;8.98;;;1.48;;
58294;SDS011;45705;55.592;37.460;2022-07-29T04:18:56;3.17;;;1.20;;
58294;SDS011;45705;55.592;37.460;2022-07-29T04:21:21;2.90;;;1.10;;
58294;SDS011;45705;55.592;37.460;2022-07-29T04:23:47;4.07;;;1.20;;
58294;SDS011;45705;55.592;37.460;2022-07-29T04:26:16;3.65;;;1.20;;
58294;SDS011;45705;55.592;37.460;2022-07-29T04:28:43;5.70;;;1.27;;
58294;SDS011;45705;55.592;37.460;2022-07-29T04:31:10;5.55;;;1.70;;
58294;SDS011;45705;55.592;37.460;2022-07-29T04:33:36;9.07;;;2.10;;
58294;SDS011;45705;55.592;37.460;2022-07-29T04:36:02;2.35;;;1.40;;
58294;SDS011;45705;55.592;37.460;2022-07-29T04:38:28;4.70;;;1.17;;
58294;SDS011;45705;55.592;37.460;2022-07-29T04:40:54;8.43;;;1.33;;
58294;SDS011;45705;55.592;37.460;2022-07-29T04:43:19;6.65;;;1.77;;
58294;SDS011;45705;55.592;37.460;2022-07-29T04:46:05;6.22;;;1.90;;
58294;SDS011;45705;55.592;37.460;2022-07-29T04:48:31;6.30;;;1.30;;
58294;SDS011;45705;55.592;37.460;2022-07-29T04:50:58;7.25;;;3.22;;
58294;SDS011;45705;55.592;37.460;2022-07-29T04:53:24;4.45;;;1.77;;
58294;SDS011;45705;55.592;37.460;2022-07-29T04:55:50;6.80;;;3.00;;
58294;SDS011;45705;55.592;37.460;2022-07-29T04:58:16;1.90;;;1.00;;
58294;SDS011;45705;55.592;37.460;2022-07-29T05:00:43;7.10;;;1.50;;
58294;SDS011;45705;55.592;37.460;2022-07-29T05:03:08;5.78;;;1.20;;
58294;SDS011;45705;55.592;37.460;2022-07-29T05:05:34;4.68;;;2.33;;
58294;SDS011;45705;55.592;37.460;2022-07-29T05:08:00;5.50;;;0.90;;
58294;SDS011;45705;55.592;37.460;2022-07-29T05:10:26;6.10;;;1.80;;
58294;SDS011;45705;55.592;37.460;2022-07-29T05:12:52;4.57;;;1.13;;
58294;SDS011;45705;55.592;37.460;2022-07-29T05:15:18;4.25;;;0.90;;
58294;SDS011;45705;55.592;37.460;2022-07-29T05:17:44;3.50;;;1.40;;
58294;SDS011;45705;55.592;37.460;2022-07-29T05:20:09;4.32;;;1.55;;
58294;SDS011;45705;55.592;37.460;2022-07-29T05:22:35;4.25;;;1.30;;
58294;SDS011;45705;55.592;37.460;2022-07-29T05:25:01;5.55;;;1.50;;
58294;SDS011;45705;55.592;37.460;2022-07-29T05:29:54;9.25;;;1.60;;
58294;SDS011;45705;55.592;37.460;2022-07-29T05:32:20;11.02;;;2.05;;
58294;SDS011;45705;55.592;37.460;2022-07-29T05:34:45;2.10;;;1.40;;
58294;SDS011;45705;55.592;37.460;2022-07-29T05:37:11;6.07;;;1.92;;
58294;SDS011;45705;55.592;37.460;2022-07-29T05:39:38;3.35;;;1.80;;
58294;SDS011;45705;55.592;37.460;2022-07-29T05:42:08;4.28;;;1.58;;
58294;SDS011;45705;55.592;37.460;2022-07-29T05:44:38;4.20;;;1.13;;
58294;SDS011;45705;55.592;37.460;2022-07-29T05:47:05;5.82;;;1.45;;
58294;SDS011;45705;55.592;37.460;2022-07-29T05:49:31;5.40;;;1.23;;
58294;SDS011;45705;55.592;37.460;2022-07-29T05:51:58;6.65;;;1.13;;
58294;SDS011;45705;55.592;37.460;2022-07-29T05:54:24;6.65;;;2.15;;
58294;SDS011;45705;55.592;37.460;2022-07-29T05:56:50;3.33;;;1.60;;
58294;SDS011;45705;55.592;37.460;2022-07-29T05:59:15;6.70;;;1.45;;
58294;SDS011;45705;55.592;37.460;2022-07-29T06:01:41;5.38;;;1.40;;
58294;SDS011;45705;55.592;37.460;2022-07-29T06:04:07;3.70;;;1.27;;
58294;SDS011;45705;55.592;37.460;2022-07-29T06:06:33;4.03;;;1.38;;
58294;SDS011;45705;55.592;37.460;2022-07-29T06:09:00;2.85;;;1.08;;
58294;SDS011;45705;55.592;37.460;2022-07-29T06:11:26;5.25;;;1.90;;
58294;SDS011;45705;55.592;37.460;2022-07-29T06:13:52;3.63;;;1.50;;
58294;SDS011;45705;55.592;37.460;2022-07-29T06:16:18;2.50;;;1.15;;
58294;SDS011;45705;55.592;37.460;2022-07-29T06:18:44;2.08;;;1.10;;
58294;SDS011;45705;55.592;37.460;2022-07-29T06:21:10;6.70;;;1.60;;
58294;SDS011;45705;55.592;37.460;2022-07-29T06:23:36;2.28;;;1.10;;
58294;SDS011;45705;55.592;37.460;2022-07-29T06:26:03;5.28;;;1.67;;
58294;SDS011;45705;55.592;37.460;2022-07-29T06:28:29;2.20;;;1.27;;
58294;SDS011;45705;55.592;37.460;2022-07-29T06:30:55;3.78;;;1.00;;
58294;SDS011;45705;55.592;37.460;2022-07-29T06:33:21;4.65;;;1.55;;
58294;SDS011;45705;55.592;37.460;2022-07-29T06:35:46;5.47;;;1.35;;
58294;SDS011;45705;55.592;37.460;2022-07-29T06:38:13;3.90;;;1.30;;
58294;SDS011;45705;55.592;37.460;2022-07-29T06:40:42;3.15;;;1.27;;
58294;SDS011;45705;55.592;37.460;2022-07-29T06:43:31;4.13;;;1.27;;
58294;SDS011;45705;55.592;37.460;2022-07-29T06:46:06;4.93;;;1.38;;
58294;SDS011;45705;55.592;37.460;2022-07-29T06:48:34;3.85;;;1.10;;
58294;SDS011;45705;55.592;37.460;2022-07-29T06:51:02;1.77;;;1.10;;
58294;SDS011;45705;55.592;37.460;2022-07-29T06:53:29;3.45;;;1.20;;
58294;SDS011;45705;55.592;37.460;2022-07-29T06:55:55;3.90;;;1.20;;
58294;SDS011;45705;55.592;37.460;2022-07-29T06:58:23;5.32;;;1.17;;
58294;SDS011;45705;55.592;37.460;2022-07-29T07:00:54;3.83;;;1.05;;
58294;SDS011;45705;55.592;37.460;2022-07-29T07:03:21;4.35;;;1.13;;
58294;SDS011;45705;55.592;37.460;2022-07-29T07:05:48;2.83;;;1.75;;
58294;SDS011;45705;55.592;37.460;2022-07-29T07:08:14;2.05;;;1.08;;
58294;SDS011;45705;55.592;37.460;2022-07-29T07:10:42;2.63;;;1.10;;
58294;SDS011;45705;55.592;37.460;2022-07-29T07:13:08;1.90;;;1.08;;
58294;SDS011;45705;55.592;37.460;2022-07-29T07:15:35;4.53;;;1.75;;
58294;SDS011;45705;55.592;37.460;2022-07-29T07:18:01;3.67;;;1.20;;
58294;SDS011;45705;55.592;37.460;2022-07-29T07:20:27;2.03;;;1.15;;
58294;SDS011;45705;55.592;37.460;2022-07-29T07:22:53;5.13;;;1.15;;
58294;SDS011;45705;55.592;37.460;2022-07-29T07:25:19;1.95;;;1.15;;
58294;SDS011;45705;55.592;37.460;2022-07-29T07:27:45;4.25;;;1.48;;
58294;SDS011;45705;55.592;37.460;2022-07-29T07:30:11;6.03;;;1.50;;
58294;SDS011;45705;55.592;37.460;2022-07-29T07:32:37;2.83;;;1.98;;
58294;SDS011;45705;55.592;37.460;2022-07-29T07:35:03;3.70;;;1.70;;
58294;SDS011;45705;55.592;37.460;2022-07-29T07:37:30;4.93;;;1.38;;
58294;SDS011;45705;55.592;37.460;2022-07-29T07:39:56;5.32;;;2.50;;
58294;SDS011;45705;55.592;37.460;2022-07-29T07:42:23;9.95;;;3.47;;
58294;SDS011;45705;55.592;37.460;2022-07-29T07:44:49;5.60;;;1.80;;
58294;SDS011;45705;55.592;37.460;2022-07-29T07:47:15;4.15;;;1.25;;
58294;SDS011;45705;55.592;37.460;2022-07-29T07:49:46;3.40;;;1.30;;
58294;SDS011;45705;55.592;37.460;2022-07-29T07:52:13;2.22;;;1.40;;
58294;SDS011;45705;55.592;37.460;2022-07-29T07:54:39;2.03;;;1.80;;
58294;SDS011;45705;55.592;37.460;2022-07-29T07:57:05;4.18;;;1.48;;
58294;SDS011;45705;55.592;37.460;2022-07-29T07:59:31;4.40;;;1.33;;
58294;SDS011;45705;55.592;37.460;2022-07-29T08:01:56;5.53;;;1.85;;
58294;SDS011;45705;55.592;37.460;2022-07-29T08:04:22;3.20;;;1.80;;
58294;SDS011;45705;55.592;37.460;2022-07-29T08:06:48;5.90;;;1.90;;
58294;SDS011;45705;55.592;37.460;2022-07-29T08:09:15;3.60;;;1.20;;
58294;SDS011;45705;55.592;37.460;2022-07-29T08:11:41;2.97;;;1.40;;
58294;SDS011;45705;55.592;37.460;2022-07-29T08:14:07;2.88;;;1.00;;
58294;SDS011;45705;55.592;37.460;2022-07-29T08:16:33;4.80;;;1.48;;
58294;SDS011;45705;55.592;37.460;2022-07-29T08:18:58;6.70;;;1.15;;
58294;SDS011;45705;55.592;37.460;2022-07-29T08:21:24;5.78;;;1.80;;
58294;SDS011;45705;55.592;37.460;2022-07-29T08:23:51;1.83;;;1.23;;
58294;SDS011;45705;55.592;37.460;2022-07-29T08:26:36;1.95;;;1.20;;
58294;SDS011;45705;55.592;37.460;2022-07-29T08:29:02;3.30;;;1.65;;
58294;SDS011;45705;55.592;37.460;2022-07-29T08:31:28;2.13;;;1.30;;
58294;SDS011;45705;55.592;37.460;2022-07-29T08:33:54;3.22;;;1.23;;
58294;SDS011;45705;55.592;37.460;2022-07-29T08:36:21;1.13;;;1.00;;
58294;SDS011;45705;55.592;37.460;2022-07-29T08:38:47;2.25;;;1.05;;
58294;SDS011;45705;55.592;37.460;2022-07-29T08:41:14;1.55;;;0.80;;
58294;SDS011;45705;55.592;37.460;2022-07-29T08:43:40;2.30;;;1.00;;
58294;SDS011;45705;55.592;37.460;2022-07-29T08:46:07;3.58;;;0.80;;
58294;SDS011;45705;55.592;37.460;2022-07-29T08:48:32;1.70;;;0.98;;
58294;SDS011;45705;55.592;37.460;2022-07-29T08:50:59;1.55;;;1.30;;
58294;SDS011;45705;55.592;37.460;2022-07-29T08:53:26;3.95;;;1.60;;
58294;SDS011;45705;55.592;37.460;2022-07-29T08:55:52;3.22;;;1.10;;
58294;SDS011;45705;55.592;37.460;2022-07-29T08:58:20;3.85;;;1.00;;
58294;SDS011;45705;55.592;37.460;2022-07-29T09:00:49;4.70;;;1.45;;
58294;SDS011;45705;55.592;37.460;2022-07-29T09:03:18;3.60;;;1.88;;
58294;SDS011;45705;55.592;37.460;2022-07-29T09:05:45;3.00;;;0.90;;
58294;SDS011;45705;55.592;37.460;2022-07-29T09:08:12;2.58;;;1.70;;
58294;SDS011;45705;55.592;37.460;2022-07-29T09:10:39;4.93;;;1.17;;
58294;SDS011;45705;55.592;37.460;2022-07-29T09:13:05;4.75;;;1.10;;
58294;SDS011;45705;55.592;37.460;2022-07-29T09:15:31;7.25;;;1.05;;
58294;SDS011;45705;55.592;37.460;2022-07-29T09:17:57;7.53;;;1.10;;
58294;SDS011;45705;55.592;37.460;2022-07-29T09:20:24;4.65;;;1.08;;
58294;SDS011;45705;55.592;37.460;2022-07-29T09:22:51;1.33;;;0.90;;
58294;SDS011;45705;55.592;37.460;2022-07-29T09:25:33;2.17;;;0.82;;
58294;SDS011;45705;55.592;37.460;2022-07-29T09:28:06;1.05;;;0.70;;
58294;SDS011;45705;55.592;37.460;2022-07-29T09:30:43;2.38;;;1.45;;
58294;SDS011;45705;55.592;37.460;2022-07-29T09:33:19;2.40;;;1.20;;
58294;SDS011;45705;55.592;37.460;2022-07-29T09:35:46;1.42;;;1.13;;
58294;SDS011;45705;55.592;37.460;2022-07-29T09:38:24;2.88;;;0.90;;
58294;SDS011;45705;55.592;37.460;2022-07-29T09:40:57;2.35;;;1.02;;
58294;SDS011;45705;55.592;37.460;2022-07-29T09:43:25;4.95;;;0.60;;
58294;SDS011;45705;55.592;37.460;2022-07-29T09:45:51;1.95;;;0.88;;
58294;SDS011;45705;55.592;37.460;2022-07-29T09:48:18;2.17;;;0.80;;
58294;SDS011;45705;55.592;37.460;2022-07-29T09:50:46;7.00;;;1.00;;
58294;SDS011;45705;55.592;37.460;2022-07-29T09:55:57;2.10;;;0.95;;
58294;SDS011;45705;55.592;37.460;2022-07-29T09:58:23;1.85;;;1.00;;
58294;SDS011;45705;55.592;37.460;2022-07-29T10:00:50;3.10;;;1.10;;
58294;SDS011;45705;55.592;37.460;2022-07-29T10:03:17;5.38;;;2.55;;
58294;SDS011;45705;55.592;37.460;2022-07-29T10:05:44;8.35;;;4.22;;
58294;SDS011;45705;55.592;37.460;2022-07-29T10:08:11;3.70;;;1.80;;
58294;SDS011;45705;55.592;37.460;2022-07-29T10:10:38;3.15;;;1.20;;
58294;SDS011;45705;55.592;37.460;2022-07-29T10:13:07;2.03;;;1.00;;
58294;SDS011;45705;55.592;37.460;2022-07-29T10:15:38;4.32;;;1.35;;
58294;SDS011;45705;55.592;37.460;2022-07-29T10:18:12;3.03;;;1.27;;
58294;SDS011;45705;55.592;37.460;2022-07-29T10:20:39;4.55;;;1.00;;
58294;SDS011;45705;55.592;37.460;2022-07-29T10:23:05;2.20;;;1.15;;
58294;SDS011;45705;55.592;37.460;2022-07-29T10:25:31;1.92;;;1.08;;
58294;SDS011;45705;55.592;37.460;2022-07-29T10:27:57;2.67;;;1.10;;
58294;SDS011;45705;55.592;37.460;2022-07-29T10:30:24;2.58;;;0.77;;
58294;SDS011;45705;55.592;37.460;2022-07-29T10:44:03;3.63;;;0.90;;
58294;SDS011;45705;55.592;37.460;2022-07-29T10:46:35;2.10;;;0.90;;
58294;SDS011;45705;55.592;37.460;2022-07-29T10:54:16;2.58;;;0.80;;
58294;SDS011;45705;55.592;37.460;2022-07-29T10:56:43;2.08;;;0.90;;
58294;SDS011;45705;55.592;37.460;2022-07-29T11:01:45;1.77;;;0.98;;
58294;SDS011;45705;55.592;37.460;2022-07-29T11:04:11;1.92;;;1.10;;
58294;SDS011;45705;55.592;37.460;2022-07-29T11:09:30;1.80;;;0.90;;
58294;SDS011;45705;55.592;37.460;2022-07-29T11:11:57;2.60;;;0.82;;
58294;SDS011;45705;55.592;37.460;2022-07-29T11:17:24;3.85;;;0.98;;
58294;SDS011;45705;55.592;37.460;2022-07-29T11:19:50;2.08;;;1.20;;
58294;SDS011;45705;55.592;37.460;2022-07-29T11:22:32;3.30;;;1.10;;
58294;SDS011;45705;55.592;37.460;2022-07-29T11:25:12;3.95;;;0.90;;
58294;SDS011;45705;55.592;37.460;2022-07-29T11:27:42;3.55;;;0.93;;
58294;SDS011;45705;55.592;37.460;2022-07-29T11:30:09;3.90;;;0.80;;
58294;SDS011;45705;55.592;37.460;2022-07-29T11:32:38;5.63;;;1.42;;
58294;SDS011;45705;55.592;37.460;2022-07-29T11:37:43;3.67;;;1.10;;
58294;SDS011;45705;55.592;37.460;2022-07-29T11:40:12;4.03;;;1.15;;
58294;SDS011;45705;55.592;37.460;2022-07-29T11:42:40;2.60;;;0.90;;
58294;SDS011;45705;55.592;37.460;2022-07-29T11:45:08;3.33;;;1.20;;
58294;SDS011;45705;55.592;37.460;2022-07-29T11:47:46;5.40;;;1.00;;
58294;SDS011;45705;55.592;37.460;2022-07-29T11:50:14;3.15;;;0.93;;
58294;SDS011;45705;55.592;37.460;2022-07-29T11:52:52;3.20;;;1.17;;
58294;SDS011;45705;55.592;37.460;2022-07-29T11:55:19;4.82;;;1.30;;
58294;SDS011;45705;55.592;37.460;2022-07-29T12:00:20;4.82;;;1.75;;
58294;SDS011;45705;55.592;37.460;2022-07-29T12:02:48;3.75;;;1.17;;
58294;SDS011;45705;55.592;37.460;2022-07-29T12:05:14;2.60;;;1.00;;
58294;SDS011;45705;55.592;37.460;2022-07-29T12:07:40;3.10;;;0.95;;
58294;SDS011;45705;55.592;37.460;2022-07-29T12:10:06;3.95;;;1.20;;
58294;SDS011;45705;55.592;37.460;2022-07-29T12:12:33;2.72;;;1.20;;
58294;SDS011;45705;55.592;37.460;2022-07-29T12:15:15;3.65;;;0.85;;
58294;SDS011;45705;55.592;37.460;2022-07-29T12:17:46;3.47;;;0.98;;
58294;SDS011;45705;55.592;37.460;2022-07-29T12:20:13;1.30;;;0.77;;
58294;SDS011;45705;55.592;37.460;2022-07-29T12:22:48;6.18;;;1.13;;
58294;SDS011;45705;55.592;37.460;2022-07-29T12:25:14;3.92;;;1.02;;
58294;SDS011;45705;55.592;37.460;2022-07-29T12:27:42;10.65;;;1.20;;
58294;SDS011;45705;55.592;37.460;2022-07-29T12:30:15;1.77;;;1.02;;
58294;SDS011;45705;55.592;37.460;2022-07-29T12:32:45;1.92;;;0.80;;
58294;SDS011;45705;55.592;37.460;2022-07-29T12:37:40;2.60;;;0.80;;
58294;SDS011;45705;55.592;37.460;2022-07-29T12:40:08;3.30;;;0.90;;
58294;SDS011;45705;55.592;37.460;2022-07-29T12:42:36;4.63;;;1.20;;
58294;SDS011;45705;55.592;37.460;2022-07-29T12:45:02;4.50;;;1.08;;
58294;SDS011;45705;55.592;37.460;2022-07-29T12:47:29;4.03;;;1.00;;
58294;SDS011;45705;55.592;37.460;2022-07-29T12:50:08;5.32;;;0.90;;
58294;SDS011;45705;55.592;37.460;2022-07-29T12:52:35;2.25;;;0.80;;
58294;SDS011;45705;55.592;37.460;2022-07-29T12:55:01;2.95;;;1.00;;
58294;SDS011;45705;55.592;37.460;2022-07-29T12:57:29;0.88;;;0.52;;
58294;SDS011;45705;55.592;37.460;2022-07-29T12:59:59;2.33;;;0.93;;
58294;SDS011;45705;55.592;37.460;2022-07-29T13:02:29;3.75;;;1.10;;
58294;SDS011;45705;55.592;37.460;2022-07-29T13:04:59;1.02;;;0.80;;
58294;SDS011;45705;55.592;37.460;2022-07-29T13:07:26;6.05;;;1.50;;
58294;SDS011;45705;55.592;37.460;2022-07-29T13:09:53;7.55;;;1.85;;
58294;SDS011;45705;55.592;37.460;2022-07-29T13:12:20;5.32;;;1.15;;
58294;SDS011;45705;55.592;37.460;2022-07-29T13:14:46;5.95;;;1.70;;
58294;SDS011;45705;55.592;37.460;2022-07-29T13:17:18;3.15;;;0.90;;
58294;SDS011;45705;55.592;37.460;2022-07-29T13:20:03;1.90;;;0.80;;
58294;SDS011;45705;55.592;37.460;2022-07-29T13:22:31;3.33;;;0.82;;
58294;SDS011;45705;55.592;37.460;2022-07-29T13:24:58;3.83;;;1.10;;
58294;SDS011;45705;55.592;37.460;2022-07-29T13:27:30;2.83;;;1.00;;
58294;SDS011;45705;55.592;37.460;2022-07-29T13:30:02;1.88;;;0.90;;
58294;SDS011;45705;55.592;37.460;2022-07-29T13:32:31;2.25;;;1.23;;
58294;SDS011;45705;55.592;37.460;2022-07-29T13:34:59;3.08;;;1.02;;
58294;SDS011;45705;55.592;37.460;2022-07-29T13:37:29;2.15;;;1.17;;
58294;SDS011;45705;55.592;37.460;2022-07-29T13:39:56;2.78;;;1.13;;
58294;SDS011;45705;55.592;37.460;2022-07-29T13:42:22;3.70;;;1.10;;
58294;SDS011;45705;55.592;37.460;2022-07-29T13:44:48;2.85;;;1.63;;
58294;SDS011;45705;55.592;37.460;2022-07-29T13:47:17;2.63;;;1.23;;
58294;SDS011;45705;55.592;37.460;2022-07-29T13:49:43;2.72;;;1.40;;
58294;SDS011;45705;55.592;37.460;2022-07-29T13:52:09;3.95;;;2.15;;
58294;SDS011;45705;55.592;37.460;2022-07-29T13:54:35;3.88;;;1.80;;
58294;SDS011;45705;55.592;37.460;2022-07-29T13:57:03;3.80;;;1.98;;
58294;SDS011;45705;55.592;37.460;2022-07-29T13:59:30;7.00;;;1.60;;
58294;SDS011;45705;55.592;37.460;2022-07-29T14:01:56;4.45;;;1.23;;
58294;SDS011;45705;55.592;37.460;2022-07-29T14:04:22;3.50;;;1.33;;
58294;SDS011;45705;55.592;37.460;2022-07-29T14:06:48;1.63;;;0.88;;
58294;SDS011;45705;55.592;37.460;2022-07-29T14:09:15;4.72;;;1.10;;
58294;SDS011;45705;55.592;37.460;2022-07-29T14:11:41;4.07;;;0.93;;
58294;SDS011;45705;55.592;37.460;2022-07-29T14:14:07;4.15;;;1.17;;
58294;SDS011;45705;55.592;37.460;2022-07-29T14:16:33;3.85;;;1.10;;
58294;SDS011;45705;55.592;37.460;2022-07-29T14:18:59;4.22;;;1.65;;
58294;SDS011;45705;55.592;37.460;2022-07-29T14:21:25;2.20;;;0.95;;
58294;SDS011;45705;55.592;37.460;2022-07-29T14:23:50;2.90;;;1.20;;
58294;SDS011;45705;55.592;37.460;2022-07-29T14:26:17;4.28;;;1.30;;
58294;SDS011;45705;55.592;37.460;2022-07-29T14:28:43;7.63;;;1.50;;
58294;SDS011;45705;55.592;37.460;2022-07-29T14:31:09;5.28;;;1.83;;
58294;SDS011;45705;55.592;37.460;2022-07-29T14:33:35;1.80;;;1.15;;
58294;SDS011;45705;55.592;37.460;2022-07-29T14:36:01;5.00;;;1.30;;
58294;SDS011;45705;55.592;37.460;2022-07-29T14:38:27;3.30;;;1.33;;
58294;SDS011;45705;55.592;37.460;2022-07-29T14:40:52;5.13;;;1.65;;
58294;SDS011;45705;55.592;37.460;2022-07-29T14:43:18;3.50;;;1.30;;
58294;SDS011;45705;55.592;37.460;2022-07-29T14:45:44;2.85;;;1.08;;
58294;SDS011;45705;55.592;37.460;2022-07-29T14:48:10;5.88;;;1.35;;
58294;SDS011;45705;55.592;37.460;2022-07-29T14:50:37;6.75;;;1.58;;
58294;SDS011;45705;55.592;37.460;2022-07-29T14:53:03;3.00;;;1.50;;
58294;SDS011;45705;55.592;37.460;2022-07-29T14:55:29;4.22;;;1.30;;
58294;SDS011;45705;55.592;37.460;2022-07-29T14:57:55;1.77;;;0.95;;
58294;SDS011;45705;55.592;37.460;2022-07-29T15:00:21;3.17;;;1.30;;
58294;SDS011;45705;55.592;37.460;2022-07-29T15:02:47;3.60;;;1.65;;
58294;SDS011;45705;55.592;37.460;2022-07-29T15:05:13;5.93;;;1.88;;
58294;SDS011;45705;55.592;37.460;2022-07-29T15:07:39;4.63;;;1.50;;
58294;SDS011;45705;55.592;37.460;2022-07-29T15:10:05;4.10;;;1.38;;
58294;SDS011;45705;55.592;37.460;2022-07-29T15:12:31;7.65;;;1.60;;
58294;SDS011;45705;55.592;37.460;2022-07-29T15:14:57;6.07;;;2.08;;
58294;SDS011;45705;55.592;37.460;2022-07-29T15:17:23;5.28;;;1.30;;
58294;SDS011;45705;55.592;37.460;2022-07-29T15:19:49;5.10;;;1.73;;
58294;SDS011;45705;55.592;37.460;2022-07-29T15:22:15;2.50;;;1.40;;
58294;SDS011;45705;55.592;37.460;2022-07-29T15:24:41;3.72;;;1.98;;
58294;SDS011;45705;55.592;37.460;2022-07-29T15:27:06;4.43;;;2.10;;